バンクーバー の空港の天気 - METARとTAF

バンクーバー国際空港 ( CYVR / YVR ) - カナダ ブリティッシュコロンビア州バンクーバー
飛行場実況気象(Metar)
観測時間02/26 22:00 PST (02/27 06:00 UTC)
風向・風速西北西 9m/s 瞬間風速12m/s
視程10km以上
天気現象
なし
気温5℃
湿度75%
気圧1014.6hPa
METARCYVR 270600Z 30018G24KT 20SM SKC 05/01 A2996 RMK SLP146
過去の天気等 Google飛行場航空写真 Wunderground天気予報

過去48時間のMETAR

飛行場予報(TAF)
発表時間: 2/26 21:38 PST (2/27 05:38 UTC)
予報対象時間: 26日22時 PST ~ 28日4時 PST
風向・風速西北西 8m/s 瞬間風速 13m/s
視程10km以上
少しの雲 雲底高度 910m
27日0時 PST ~ 27日2時 PST に徐々に
風向・風速北西 4m/s
27日8時 PST から
風向・風速東 4m/s
視程10km以上
全天の8割程度の雲 雲底高度 7320m
27日13時 PST から
風向・風速南南東 3m/s
視程10km以上
全天の8割程度の雲 雲底高度 3050m
全天を覆う雲 雲底高度 5490m
27日16時 PST から
風向・風速東 4m/s
視程10km以上
天気現象弱い雨
全天の4割程度の雲 雲底高度 460m
全天を覆う雲 雲底高度 1220m
27日19時 PST から
風向・風速東 3m/s
視程8050m
天気現象弱い雨 もや
全天を覆う雲 雲底高度 460m
TAF CYVR 270538Z 2706/2812 29015G25KT P6SM FEW030
BECMG 2708/2710 31008KT
FM271600 09007KT P6SM BKN240
FM272100 15005KT P6SM BKN100 OVC180
FM280000 09008KT P6SM -RA SCT015 OVC040
FM280300 09006KT 5SM -RA BR OVC015 RMK NXT FCST BY 270900Z